createdAt,value
2023-03-26T00:01:00.700Z,67.28
2023-03-26T00:04:07.451Z,67.00
2023-03-26T00:07:11.202Z,67.64
2023-03-26T00:10:15.704Z,66.95
2023-03-26T00:13:19.098Z,67.37
2023-03-26T00:16:22.666Z,67.83
2023-03-26T00:19:28.088Z,67.73
2023-03-26T00:22:31.437Z,67.95
2023-03-26T00:25:35.253Z,67.81
2023-03-26T00:28:40.712Z,68.84
2023-03-26T00:31:46.425Z,68.54
2023-03-26T00:34:52.272Z,68.88
2023-03-26T00:37:55.926Z,68.39
2023-03-26T00:41:06.124Z,69.07
2023-03-26T00:44:10.709Z,67.88
2023-03-26T00:47:14.621Z,68.05
2023-03-26T00:50:19.751Z,68.12
2023-03-26T00:53:23.494Z,68.69
2023-03-26T00:56:27.698Z,67.97
2023-03-26T00:59:32.100Z,68.63
2023-03-26T01:02:36.060Z,68.50
2023-03-26T01:05:46.771Z,68.58
2023-03-26T01:08:52.984Z,68.36
2023-03-26T01:11:56.790Z,68.69
2023-03-26T01:15:04.244Z,68.99
2023-03-26T01:18:10.018Z,68.80
2023-03-26T01:21:22.722Z,68.59
2023-03-26T01:24:28.924Z,68.57
2023-03-26T01:27:41.186Z,68.83
2023-03-26T01:30:58.854Z,68.68
2023-03-26T01:34:12.522Z,68.90
2023-03-26T01:37:25.358Z,68.48
2023-03-26T01:40:38.805Z,68.42
2023-03-26T01:43:49.213Z,68.76
2023-03-26T01:46:54.541Z,67.92
2023-03-26T01:49:59.571Z,68.38
2023-03-26T01:53:03.261Z,68.60
2023-03-26T01:56:17.373Z,67.77
2023-03-26T01:59:41.486Z,68.14
2023-03-26T02:02:56.635Z,67.59
2023-03-26T02:06:10.042Z,67.70
2023-03-26T02:09:17.567Z,67.32
2023-03-26T02:12:24.629Z,67.96
2023-03-26T02:15:28.037Z,67.31
2023-03-26T02:18:36.560Z,67.39
2023-03-26T02:21:40.481Z,66.80
2023-03-26T02:24:46.960Z,67.20
2023-03-26T02:27:54.176Z,67.46
2023-03-26T02:31:01.748Z,66.95
2023-03-26T02:34:06.767Z,67.20
2023-03-26T02:37:13.035Z,66.85
2023-03-26T02:40:21.282Z,66.46
2023-03-26T02:43:27.048Z,67.28
2023-03-26T02:46:33.142Z,66.55
2023-03-26T02:49:51.069Z,66.90
2023-03-26T02:53:07.604Z,66.70
2023-03-26T02:56:14.648Z,66.54
2023-03-26T02:59:30.871Z,66.36
2023-03-26T03:02:54.407Z,66.71
2023-03-26T03:06:06.949Z,66.16
2023-03-26T03:09:15.815Z,65.53
2023-03-26T03:12:21.746Z,65.84
2023-03-26T03:15:27.477Z,66.01
2023-03-26T03:18:30.910Z,66.44
2023-03-26T03:21:34.867Z,66.38
2023-03-26T03:24:38.864Z,66.22
2023-03-26T03:27:43.314Z,66.04
2023-03-26T03:30:53.480Z,66.60
2023-03-26T03:34:03.880Z,66.86
2023-03-26T03:37:11.329Z,66.44
2023-03-26T03:40:24.623Z,66.54
2023-03-26T03:43:28.687Z,66.52
2023-03-26T03:46:54.178Z,65.93
2023-03-26T03:50:00.268Z,66.46
2023-03-26T03:53:05.833Z,65.98
2023-03-26T03:56:10.621Z,66.75
2023-03-26T03:59:32.410Z,67.05
2023-03-26T04:02:37.879Z,65.81
2023-03-26T04:05:43.920Z,66.34
2023-03-26T04:08:47.864Z,66.76
2023-03-26T04:11:52.481Z,66.17
2023-03-26T04:15:09.463Z,66.02
2023-03-26T04:18:14.421Z,66.42
2023-03-26T04:21:21.331Z,65.82
2023-03-26T04:24:24.991Z,66.78
2023-03-26T04:27:43.497Z,66.50
2023-03-26T04:31:07.632Z,66.78
2023-03-26T04:34:24.411Z,66.71
2023-03-26T04:37:48.276Z,66.84
2023-03-26T04:41:01.592Z,66.52
2023-03-26T04:44:26.346Z,66.77
2023-03-26T04:47:37.220Z,67.65
2023-03-26T04:50:45.105Z,68.05
2023-03-26T04:53:54.224Z,68.51
2023-03-26T04:57:26.314Z,68.19
2023-03-26T05:00:50.550Z,68.01
2023-03-26T05:03:54.051Z,68.07
2023-03-26T05:07:00.034Z,67.85
2023-03-26T05:10:14.904Z,67.41
2023-03-26T05:13:32.049Z,66.60
2023-03-26T05:16:44.949Z,67.10
2023-03-26T05:19:48.957Z,66.50
2023-03-26T05:22:55.302Z,66.44
2023-03-26T05:26:08.416Z,66.66
2023-03-26T05:29:12.840Z,65.92
2023-03-26T05:32:20.904Z,65.85
2023-03-26T05:35:27.790Z,64.94
2023-03-26T05:38:33.412Z,65.62
2023-03-26T05:41:38.637Z,64.80
2023-03-26T05:44:42.633Z,65.36
2023-03-26T05:47:55.989Z,65.02
2023-03-26T05:51:01.967Z,66.27
2023-03-26T05:54:08.972Z,65.62
2023-03-26T05:57:31.383Z,66.50
2023-03-26T06:00:59.489Z,67.39
2023-03-26T06:04:13.852Z,67.96
2023-03-26T06:07:24.008Z,68.84
2023-03-26T06:10:47.716Z,68.80
2023-03-26T06:13:51.186Z,68.99
2023-03-26T06:16:55.194Z,68.01
2023-03-26T06:19:58.879Z,69.54
2023-03-26T06:23:11.564Z,68.76
2023-03-26T06:26:36.954Z,67.91
2023-03-26T06:30:07.496Z,67.08
2023-03-26T06:33:31.338Z,67.04
2023-03-26T06:36:37.347Z,66.81
2023-03-26T06:39:41.849Z,66.42
2023-03-26T06:43:06.672Z,66.65
2023-03-26T06:46:32.309Z,67.39
2023-03-26T06:49:54.376Z,68.29
2023-03-26T06:53:25.174Z,69.39
2023-03-26T06:56:48.626Z,70.15
2023-03-26T06:59:59.660Z,70.24
2023-03-26T07:03:22.147Z,70.60
2023-03-26T07:07:01.336Z,70.30
2023-03-26T07:10:33.917Z,70.95
2023-03-26T07:13:48.941Z,70.03
2023-03-26T07:17:13.952Z,69.92
2023-03-26T07:20:31.948Z,69.74
2023-03-26T07:23:36.377Z,69.41
2023-03-26T07:27:11.243Z,69.79
2023-03-26T07:30:26.075Z,69.56
2023-03-26T07:34:05.626Z,69.28
2023-03-26T07:37:45.292Z,69.28
2023-03-26T07:41:06.215Z,69.43
2023-03-26T07:44:49.155Z,68.89
2023-03-26T07:48:04.674Z,68.94
2023-03-26T07:51:33.122Z,69.15
2023-03-26T07:55:13.185Z,68.93
2023-03-26T07:59:05.482Z,67.53
2023-03-26T08:02:41.405Z,66.43
2023-03-26T08:06:11.226Z,66.89
2023-03-26T08:09:30.077Z,66.23
2023-03-26T08:13:18.071Z,65.30
2023-03-26T08:16:30.461Z,64.25
2023-03-26T08:19:51.629Z,64.16
2023-03-26T08:23:03.687Z,63.76
2023-03-26T08:26:16.268Z,63.64
2023-03-26T08:29:26.889Z,64.08
2023-03-26T08:32:31.110Z,63.99
2023-03-26T08:35:35.473Z,63.72
2023-03-26T08:38:39.165Z,63.98
2023-03-26T08:42:37.067Z,62.12
2023-03-26T08:46:02.008Z,61.77
2023-03-26T08:49:31.933Z,62.31
2023-03-26T08:53:04.309Z,61.74
2023-03-26T08:56:22.966Z,61.18
2023-03-26T09:00:13.767Z,61.61
2023-03-26T09:03:55.136Z,61.41
2023-03-26T09:07:32.367Z,62.11
2023-03-26T09:10:52.883Z,63.08
2023-03-26T09:14:43.344Z,63.23
2023-03-26T09:18:18.450Z,62.31
2023-03-26T09:21:54.160Z,62.86
2023-03-26T09:25:41.726Z,62.40
2023-03-26T09:29:19.004Z,61.76
2023-03-26T09:32:53.848Z,61.69
2023-03-26T09:36:32.351Z,62.93
2023-03-26T09:39:40.208Z,61.26
2023-03-26T09:42:55.059Z,62.49
2023-03-26T09:46:10.686Z,62.11
2023-03-26T09:49:40.189Z,61.20
2023-03-26T09:53:08.309Z,61.05
2023-03-26T09:56:27.147Z,60.49
2023-03-26T09:59:56.201Z,59.66
2023-03-26T10:03:20.160Z,59.34
2023-03-26T10:06:46.062Z,58.97
2023-03-26T10:09:58.187Z,60.83
2023-03-26T10:13:15.025Z,58.68
2023-03-26T10:16:27.575Z,59.49
2023-03-26T10:19:52.596Z,58.16
2023-03-26T10:23:08.770Z,58.57
2023-03-26T10:27:08.797Z,57.04
2023-03-26T10:30:24.074Z,57.28
2023-03-26T10:33:38.146Z,56.54
2023-03-26T10:36:51.977Z,57.38
2023-03-26T10:40:14.262Z,55.66
2023-03-26T10:43:39.805Z,54.92
2023-03-26T10:47:01.306Z,54.98
2023-03-26T10:50:22.967Z,54.18
2023-03-26T10:53:40.325Z,54.14
2023-03-26T10:56:47.637Z,52.43
2023-03-26T10:59:53.373Z,53.03
2023-03-26T11:03:18.890Z,52.82
2023-03-26T11:06:43.459Z,53.46
2023-03-26T11:09:54.926Z,53.88
2023-03-26T11:13:09.291Z,54.62
2023-03-26T11:16:21.095Z,56.63
2023-03-26T11:19:32.707Z,54.94
2023-03-26T11:22:49.753Z,53.59
2023-03-26T11:26:10.333Z,52.03
2023-03-26T11:29:48.557Z,51.59
2023-03-26T11:32:58.163Z,53.82
2023-03-26T11:36:06.692Z,55.40
2023-03-26T11:39:15.324Z,54.15
2023-03-26T11:42:23.160Z,54.64
2023-03-26T11:45:30.729Z,61.61
2023-03-26T11:48:41.991Z,64.70
2023-03-26T11:51:48.874Z,65.18
2023-03-26T11:54:52.470Z,65.59
2023-03-26T11:58:00.527Z,64.96
2023-03-26T12:01:16.595Z,65.63
2023-03-26T12:04:31.350Z,63.15
2023-03-26T12:07:37.469Z,61.79
2023-03-26T12:10:44.122Z,60.56
2023-03-26T12:13:54.777Z,60.34
2023-03-26T12:17:03.740Z,59.93
2023-03-26T12:20:34.898Z,60.17
2023-03-26T12:23:45.138Z,60.27
2023-03-26T12:26:50.321Z,59.90
2023-03-26T12:29:55.158Z,58.67
2023-03-26T12:33:03.899Z,58.55
2023-03-26T12:36:23.461Z,56.85
2023-03-26T12:40:08.988Z,55.73
2023-03-26T12:44:54.606Z,55.35
2023-03-26T12:47:55.673Z,55.35
2023-03-26T12:49:53.269Z,55.34
2023-03-26T12:53:20.200Z,55.37
2023-03-26T12:56:37.095Z,59.47
2023-03-26T13:00:00.336Z,59.33
2023-03-26T13:03:24.276Z,59.05
2023-03-26T13:06:59.298Z,59.98
2023-03-26T13:10:34.603Z,61.98
2023-03-26T13:14:14.841Z,63.65
2023-03-26T13:17:27.407Z,65.03
2023-03-26T13:20:44.408Z,64.59
2023-03-26T13:23:55.466Z,64.70
2023-03-26T13:27:11.350Z,63.15
2023-03-26T13:30:38.538Z,62.47
2023-03-26T13:33:51.658Z,63.28
2023-03-26T13:37:07.837Z,62.71
2023-03-26T13:40:26.481Z,61.58
2023-03-26T13:43:39.015Z,62.08
2023-03-26T13:46:47.463Z,61.18
2023-03-26T13:49:56.533Z,59.61
2023-03-26T13:53:04.299Z,59.18
2023-03-26T13:56:14.593Z,58.49
2023-03-26T13:59:25.856Z,58.88
2023-03-26T14:02:38.637Z,57.91
2023-03-26T14:05:48.686Z,58.75
2023-03-26T14:08:59.494Z,56.65
2023-03-26T14:12:20.969Z,56.90
2023-03-26T14:15:29.626Z,57.52
2023-03-26T14:18:44.475Z,56.87
2023-03-26T14:22:04.041Z,57.67
2023-03-26T14:25:27.731Z,57.07
2023-03-26T14:29:06.554Z,57.39
2023-03-26T14:32:30.936Z,57.49
2023-03-26T14:35:41.622Z,58.08
2023-03-26T14:39:07.981Z,56.99
2023-03-26T14:42:20.567Z,55.96
2023-03-26T14:45:56.638Z,53.99
2023-03-26T14:49:15.335Z,53.96
2023-03-26T14:52:31.630Z,52.79
2023-03-26T14:56:04.198Z,53.24
2023-03-26T14:59:32.650Z,54.16
2023-03-26T15:03:27.606Z,54.14
2023-03-26T15:07:03.959Z,52.23
2023-03-26T15:10:41.845Z,52.32
2023-03-26T15:13:57.243Z,51.74
2023-03-26T15:17:42.179Z,51.87
2023-03-26T15:21:23.523Z,52.74
2023-03-26T15:24:53.713Z,53.93
2023-03-26T15:28:52.561Z,54.41
2023-03-26T15:32:31.418Z,56.73
2023-03-26T15:35:57.768Z,59.15
2023-03-26T15:39:58.651Z,60.90
2023-03-26T15:43:11.841Z,60.17
2023-03-26T15:46:32.417Z,58.81
2023-03-26T15:49:42.975Z,57.26
2023-03-26T15:52:54.004Z,56.46
2023-03-26T15:56:09.172Z,56.43
2023-03-26T15:59:28.288Z,56.41
2023-03-26T16:02:42.243Z,57.08
2023-03-26T16:06:08.942Z,56.37
2023-03-26T16:09:29.065Z,55.90
2023-03-26T16:12:36.944Z,56.60
2023-03-26T16:15:42.828Z,56.67
2023-03-26T16:18:49.242Z,57.03
2023-03-26T16:21:59.473Z,56.95
2023-03-26T16:25:27.791Z,57.82
2023-03-26T16:28:35.687Z,56.33
2023-03-26T16:32:00.760Z,57.16
2023-03-26T16:35:37.133Z,56.54
2023-03-26T16:38:52.067Z,57.51
2023-03-26T16:42:06.149Z,57.97
2023-03-26T16:45:28.197Z,58.20
2023-03-26T16:48:39.812Z,60.49
2023-03-26T16:52:03.357Z,61.21
2023-03-26T16:55:17.631Z,60.45
2023-03-26T16:58:31.841Z,61.52
2023-03-26T17:01:43.078Z,63.12
2023-03-26T17:04:50.709Z,66.04
2023-03-26T17:08:02.955Z,66.65
2023-03-26T17:11:20.387Z,66.08
2023-03-26T17:14:41.663Z,67.82
2023-03-26T17:18:21.135Z,68.43
2023-03-26T17:21:46.029Z,69.59
2023-03-26T17:24:59.738Z,69.87
2023-03-26T17:28:43.506Z,69.49
2023-03-26T17:31:53.533Z,69.74
2023-03-26T17:35:02.256Z,70.28
2023-03-26T17:38:10.940Z,70.78
2023-03-26T17:42:02.565Z,70.53
2023-03-26T17:45:14.238Z,68.76
2023-03-26T17:48:23.284Z,68.55
2023-03-26T17:51:41.110Z,68.03
2023-03-26T17:54:47.640Z,68.79
2023-03-26T17:57:57.806Z,68.50
2023-03-26T18:01:09.255Z,68.11
2023-03-26T18:04:19.962Z,69.33
2023-03-26T18:08:03.641Z,68.60
2023-03-26T18:11:45.508Z,68.85
2023-03-26T18:15:11.339Z,68.95
2023-03-26T18:18:20.012Z,70.10
2023-03-26T18:21:33.940Z,69.99
2023-03-26T18:24:40.124Z,71.11
2023-03-26T18:27:44.206Z,70.66
2023-03-26T18:30:50.857Z,70.62
2023-03-26T18:33:59.250Z,71.97
2023-03-26T18:37:16.669Z,71.44
2023-03-26T18:40:22.219Z,71.10
2023-03-26T18:43:34.352Z,71.78
2023-03-26T18:46:39.915Z,72.08
2023-03-26T18:49:45.352Z,72.07
2023-03-26T18:52:49.136Z,71.00
2023-03-26T18:55:53.932Z,71.18
2023-03-26T18:59:03.007Z,72.09
2023-03-26T19:02:16.454Z,72.42
2023-03-26T19:05:21.629Z,73.89
2023-03-26T19:08:26.390Z,74.12
2023-03-26T19:11:33.615Z,74.25
2023-03-26T19:14:55.194Z,73.69
2023-03-26T19:18:07.396Z,74.80
2023-03-26T19:21:11.258Z,73.86
2023-03-26T19:24:16.502Z,74.49
2023-03-26T19:27:20.495Z,73.99
2023-03-26T19:30:30.478Z,73.82
2023-03-26T19:33:37.852Z,73.11
2023-03-26T19:36:58.114Z,73.20
2023-03-26T19:40:07.594Z,73.49
2023-03-26T19:43:13.446Z,73.73
2023-03-26T19:46:16.999Z,73.97
2023-03-26T19:49:29.647Z,74.25
2023-03-26T19:52:39.018Z,74.97
2023-03-26T19:55:43.184Z,75.09
2023-03-26T19:58:46.642Z,75.38
2023-03-26T20:01:50.173Z,75.26
2023-03-26T20:04:55.384Z,76.60
2023-03-26T20:08:03.260Z,77.23
2023-03-26T20:11:20.618Z,77.47
2023-03-26T20:14:26.241Z,76.83
2023-03-26T20:17:31.049Z,77.14
2023-03-26T20:20:36.772Z,76.68
2023-03-26T20:23:40.452Z,76.90
2023-03-26T20:26:44.270Z,77.03
2023-03-26T20:29:47.813Z,76.94
2023-03-26T20:32:51.511Z,77.78
2023-03-26T20:36:33.329Z,78.12
2023-03-26T20:39:39.618Z,78.94
2023-03-26T20:42:45.524Z,77.88
2023-03-26T20:45:49.873Z,78.26
2023-03-26T20:48:54.912Z,78.79
2023-03-26T20:52:01.252Z,79.39
2023-03-26T20:55:05.033Z,79.87
2023-03-26T20:58:10.554Z,79.45
2023-03-26T21:01:14.995Z,79.60
2023-03-26T21:04:19.364Z,79.99
2023-03-26T21:07:24.197Z,80.17
2023-03-26T21:10:30.603Z,79.96
2023-03-26T21:13:39.027Z,80.24
2023-03-26T21:16:43.112Z,80.17
2023-03-26T21:19:47.725Z,79.55
2023-03-26T21:23:00.211Z,79.27
2023-03-26T21:26:12.205Z,79.65
2023-03-26T21:29:16.088Z,78.73
2023-03-26T21:32:20.530Z,78.94
2023-03-26T21:35:24.674Z,78.12
2023-03-26T21:38:32.654Z,79.39
2023-03-26T21:41:44.452Z,78.99
2023-03-26T21:44:48.673Z,78.77
2023-03-26T21:47:53.180Z,79.25
2023-03-26T21:51:02.563Z,79.69
2023-03-26T21:54:22.301Z,80.01
2023-03-26T21:57:48.558Z,80.06
2023-03-26T22:01:06.451Z,80.21
2023-03-26T22:04:15.736Z,80.19
2023-03-26T22:07:22.026Z,79.90
2023-03-26T22:10:27.156Z,81.12
2023-03-26T22:13:31.122Z,80.84
2023-03-26T22:16:34.596Z,80.15
2023-03-26T22:19:38.076Z,79.10
2023-03-26T22:22:48.849Z,78.90
2023-03-26T22:25:53.733Z,78.74
2023-03-26T22:28:57.471Z,79.58
2023-03-26T22:32:00.965Z,79.50
2023-03-26T22:35:05.054Z,79.17
2023-03-26T22:38:09.908Z,79.65
2023-03-26T22:41:15.609Z,80.75
2023-03-26T22:44:20.121Z,80.59
2023-03-26T22:47:23.970Z,80.88
2023-03-26T22:50:28.069Z,80.55
2023-03-26T22:53:35.166Z,81.25
2023-03-26T22:56:40.150Z,80.91
2023-03-26T22:59:43.887Z,80.69
2023-03-26T23:02:48.208Z,80.46
2023-03-26T23:05:58.580Z,80.74
2023-03-26T23:09:02.147Z,81.00
2023-03-26T23:12:07.831Z,80.92
2023-03-26T23:15:12.325Z,80.48
2023-03-26T23:18:15.718Z,80.14
2023-03-26T23:21:20.959Z,79.87
2023-03-26T23:24:26.649Z,80.17
2023-03-26T23:27:32.998Z,80.41
2023-03-26T23:30:36.524Z,80.35
2023-03-26T23:33:46.545Z,80.82
2023-03-26T23:36:50.825Z,80.04
2023-03-26T23:40:00.601Z,80.24
2023-03-26T23:43:05.721Z,80.27
2023-03-26T23:46:10.515Z,80.85
2023-03-26T23:49:15.191Z,80.48
2023-03-26T23:52:18.633Z,80.35
2023-03-26T23:55:22.231Z,80.69
2023-03-26T23:58:30.220Z,80.52
